KHUL/HUL METAR and TAF weather

Enter ICAO airport designator
Station Type Date Time Source
KHUL METAR 2022/11/26 08:53 UTC NOAA

KHUL 260853Z AUTO 33011G24KT 10SM OVC018 01/M03 A2955 RMK AO2 SLP012 60000 T00061028 53032


Station Type Date Time Source
KHUL Decoded METAR 2022/11/26 08:53 UTC NOAA

HOULTON INT'L AIRPORT, ME, United States (KHUL) 46-07N 067-48W 150M
Nov 26, 2022 - 03:53 AM EST / 2022.11.26 0853 UTC
Wind: from the NNW (330 degrees) at 13 MPH (11 KT) gusting to 28 MPH (24 KT):0
Visibility: 10 mile(s):0
Sky conditions: overcast
Temperature: 33.1 F (0.6 C)
Windchill: 23 F (-5 C):1
Dew Point: 27.0 F (-2.8 C)
Relative Humidity: 77%
Pressure (altimeter): 29.55 in. Hg (1000 hPa)
Pressure tendency: 0.09 inches (3.2 hPa) higher than three hours ago
ob: KHUL 260853Z AUTO 33011G24KT 10SM OVC018 01/M03 A2955 RMK AO2 SLP012 60000 T00061028 53032
cycle: 9

Station Type Date Time Source
KHUL TAF 2022/11/26 06:22 UTC NOAA

TAF KHUL 260520Z 2606/2706 32010G18KT P6SM BKN012 OVC017
TEMPO 2606/2608 5SM -SHSN
FM260800 32012G25KT P6SM BKN012
FM260900 32013G29KT P6SM BKN022 WS020/33050KT
FM261300 32014G30KT P6SM BKN040
FM262200 30008KT P6SM FEW100 WS020/31035KT

Example: see airport list